sensor_id;sensor_type;location;lat;lon;timestamp;P1;durP1;ratioP1;P2;durP2;ratioP2
61635;SDS011;59438;45.014;39.006;2023-01-05T00:01:24;19.15;;;9.68;;
61635;SDS011;59438;45.014;39.006;2023-01-05T00:03:51;19.23;;;9.95;;
61635;SDS011;59438;45.014;39.006;2023-01-05T00:06:17;18.65;;;9.52;;
61635;SDS011;59438;45.014;39.006;2023-01-05T00:08:44;17.58;;;8.93;;
61635;SDS011;59438;45.014;39.006;2023-01-05T00:11:11;17.92;;;9.65;;
61635;SDS011;59438;45.014;39.006;2023-01-05T00:13:38;18.83;;;10.18;;
61635;SDS011;59438;45.014;39.006;2023-01-05T00:16:07;20.25;;;9.50;;
61635;SDS011;59438;45.014;39.006;2023-01-05T00:18:38;23.52;;;9.60;;
61635;SDS011;59438;45.014;39.006;2023-01-05T00:21:07;18.73;;;9.60;;
61635;SDS011;59438;45.014;39.006;2023-01-05T00:23:37;20.13;;;9.48;;
61635;SDS011;59438;45.014;39.006;2023-01-05T00:26:04;20.05;;;9.65;;
61635;SDS011;59438;45.014;39.006;2023-01-05T00:28:30;21.15;;;10.07;;
61635;SDS011;59438;45.014;39.006;2023-01-05T00:30:56;19.20;;;9.05;;
61635;SDS011;59438;45.014;39.006;2023-01-05T00:33:23;20.33;;;9.07;;
61635;SDS011;59438;45.014;39.006;2023-01-05T00:35:50;19.25;;;9.05;;
61635;SDS011;59438;45.014;39.006;2023-01-05T00:41:02;19.48;;;9.90;;
61635;SDS011;59438;45.014;39.006;2023-01-05T00:43:28;19.20;;;9.32;;
61635;SDS011;59438;45.014;39.006;2023-01-05T00:45:54;17.52;;;8.73;;
61635;SDS011;59438;45.014;39.006;2023-01-05T00:48:21;16.42;;;9.38;;
61635;SDS011;59438;45.014;39.006;2023-01-05T00:50:48;20.55;;;9.38;;
61635;SDS011;59438;45.014;39.006;2023-01-05T00:53:16;22.10;;;10.40;;
61635;SDS011;59438;45.014;39.006;2023-01-05T00:55:42;21.27;;;10.35;;
61635;SDS011;59438;45.014;39.006;2023-01-05T00:58:08;20.60;;;10.43;;
61635;SDS011;59438;45.014;39.006;2023-01-05T01:00:35;17.88;;;9.05;;
61635;SDS011;59438;45.014;39.006;2023-01-05T01:03:01;19.40;;;9.40;;
61635;SDS011;59438;45.014;39.006;2023-01-05T01:05:27;20.60;;;9.85;;
61635;SDS011;59438;45.014;39.006;2023-01-05T01:07:54;18.52;;;10.05;;
61635;SDS011;59438;45.014;39.006;2023-01-05T01:10:22;18.45;;;9.82;;
61635;SDS011;59438;45.014;39.006;2023-01-05T01:12:48;17.10;;;9.55;;
61635;SDS011;59438;45.014;39.006;2023-01-05T01:15:14;16.83;;;9.10;;
61635;SDS011;59438;45.014;39.006;2023-01-05T01:17:41;17.85;;;8.93;;
61635;SDS011;59438;45.014;39.006;2023-01-05T01:20:07;21.48;;;9.32;;
61635;SDS011;59438;45.014;39.006;2023-01-05T01:22:34;17.85;;;8.15;;
61635;SDS011;59438;45.014;39.006;2023-01-05T01:25:01;20.92;;;8.93;;
61635;SDS011;59438;45.014;39.006;2023-01-05T01:27:29;26.10;;;9.25;;
61635;SDS011;59438;45.014;39.006;2023-01-05T01:29:57;19.13;;;8.43;;
61635;SDS011;59438;45.014;39.006;2023-01-05T01:32:23;17.00;;;8.32;;
61635;SDS011;59438;45.014;39.006;2023-01-05T01:34:50;21.15;;;8.07;;
61635;SDS011;59438;45.014;39.006;2023-01-05T01:37:16;19.88;;;8.40;;
61635;SDS011;59438;45.014;39.006;2023-01-05T01:39:42;23.48;;;9.15;;
61635;SDS011;59438;45.014;39.006;2023-01-05T01:42:10;21.92;;;9.02;;
61635;SDS011;59438;45.014;39.006;2023-01-05T01:44:50;16.48;;;8.77;;
61635;SDS011;59438;45.014;39.006;2023-01-05T01:47:22;22.25;;;9.05;;
61635;SDS011;59438;45.014;39.006;2023-01-05T01:49:56;16.85;;;8.60;;
61635;SDS011;59438;45.014;39.006;2023-01-05T01:52:26;18.65;;;8.73;;
61635;SDS011;59438;45.014;39.006;2023-01-05T01:54:53;16.83;;;8.65;;
61635;SDS011;59438;45.014;39.006;2023-01-05T01:57:20;18.40;;;9.32;;
61635;SDS011;59438;45.014;39.006;2023-01-05T01:59:50;21.58;;;9.55;;
61635;SDS011;59438;45.014;39.006;2023-01-05T02:02:16;30.02;;;11.15;;
61635;SDS011;59438;45.014;39.006;2023-01-05T02:04:43;27.65;;;10.75;;
61635;SDS011;59438;45.014;39.006;2023-01-05T02:07:10;25.77;;;10.60;;
61635;SDS011;59438;45.014;39.006;2023-01-05T02:09:39;28.00;;;11.57;;
61635;SDS011;59438;45.014;39.006;2023-01-05T02:12:08;24.80;;;10.20;;
61635;SDS011;59438;45.014;39.006;2023-01-05T02:14:59;26.30;;;10.77;;
61635;SDS011;59438;45.014;39.006;2023-01-05T02:17:38;30.85;;;11.40;;
61635;SDS011;59438;45.014;39.006;2023-01-05T02:29:31;24.52;;;10.07;;
61635;SDS011;59438;45.014;39.006;2023-01-05T02:32:28;24.58;;;9.32;;
61635;SDS011;59438;45.014;39.006;2023-01-05T02:35:01;19.98;;;9.25;;
61635;SDS011;59438;45.014;39.006;2023-01-05T02:37:38;18.13;;;8.82;;
61635;SDS011;59438;45.014;39.006;2023-01-05T02:42:38;25.00;;;10.30;;
61635;SDS011;59438;45.014;39.006;2023-01-05T02:45:07;27.63;;;9.98;;
61635;SDS011;59438;45.014;39.006;2023-01-05T02:47:53;25.98;;;10.43;;
61635;SDS011;59438;45.014;39.006;2023-01-05T02:50:21;25.50;;;10.32;;
61635;SDS011;59438;45.014;39.006;2023-01-05T02:52:54;21.60;;;10.65;;
61635;SDS011;59438;45.014;39.006;2023-01-05T02:55:23;20.00;;;9.88;;
61635;SDS011;59438;45.014;39.006;2023-01-05T03:00:23;21.35;;;9.25;;
61635;SDS011;59438;45.014;39.006;2023-01-05T03:02:52;27.33;;;9.75;;
61635;SDS011;59438;45.014;39.006;2023-01-05T03:05:25;19.75;;;9.93;;
61635;SDS011;59438;45.014;39.006;2023-01-05T03:07:57;22.67;;;10.52;;
61635;SDS011;59438;45.014;39.006;2023-01-05T03:10:50;21.38;;;9.35;;
61635;SDS011;59438;45.014;39.006;2023-01-05T03:13:23;18.13;;;9.13;;
61635;SDS011;59438;45.014;39.006;2023-01-05T03:18:39;21.60;;;10.07;;
61635;SDS011;59438;45.014;39.006;2023-01-05T03:21:06;21.45;;;9.40;;
61635;SDS011;59438;45.014;39.006;2023-01-05T03:23:32;21.85;;;9.18;;
61635;SDS011;59438;45.014;39.006;2023-01-05T03:25:58;23.85;;;10.18;;
61635;SDS011;59438;45.014;39.006;2023-01-05T03:28:45;22.98;;;10.85;;
61635;SDS011;59438;45.014;39.006;2023-01-05T03:31:16;26.30;;;11.05;;
61635;SDS011;59438;45.014;39.006;2023-01-05T03:33:50;26.20;;;9.68;;
61635;SDS011;59438;45.014;39.006;2023-01-05T03:36:23;22.35;;;9.93;;
61635;SDS011;59438;45.014;39.006;2023-01-05T03:38:54;20.80;;;9.98;;
61635;SDS011;59438;45.014;39.006;2023-01-05T03:41:23;19.90;;;9.77;;
61635;SDS011;59438;45.014;39.006;2023-01-05T03:43:51;18.13;;;10.02;;
61635;SDS011;59438;45.014;39.006;2023-01-05T03:49:05;26.58;;;11.55;;
61635;SDS011;59438;45.014;39.006;2023-01-05T03:51:31;22.08;;;11.30;;
61635;SDS011;59438;45.014;39.006;2023-01-05T03:53:58;19.42;;;10.85;;
61635;SDS011;59438;45.014;39.006;2023-01-05T03:56:24;22.60;;;11.85;;
61635;SDS011;59438;45.014;39.006;2023-01-05T03:58:50;28.95;;;11.73;;
61635;SDS011;59438;45.014;39.006;2023-01-05T04:01:17;25.15;;;11.82;;
61635;SDS011;59438;45.014;39.006;2023-01-05T04:03:43;26.35;;;11.52;;
61635;SDS011;59438;45.014;39.006;2023-01-05T04:06:11;23.48;;;11.32;;
61635;SDS011;59438;45.014;39.006;2023-01-05T04:08:37;22.63;;;10.70;;
61635;SDS011;59438;45.014;39.006;2023-01-05T04:11:10;21.52;;;11.50;;
61635;SDS011;59438;45.014;39.006;2023-01-05T04:13:38;20.70;;;11.23;;
61635;SDS011;59438;45.014;39.006;2023-01-05T04:16:05;20.23;;;11.10;;
61635;SDS011;59438;45.014;39.006;2023-01-05T04:18:32;21.83;;;11.00;;
61635;SDS011;59438;45.014;39.006;2023-01-05T04:20:58;26.23;;;11.20;;
61635;SDS011;59438;45.014;39.006;2023-01-05T04:23:26;19.58;;;10.52;;
61635;SDS011;59438;45.014;39.006;2023-01-05T04:25:52;20.88;;;10.85;;
61635;SDS011;59438;45.014;39.006;2023-01-05T04:28:19;22.92;;;11.20;;
61635;SDS011;59438;45.014;39.006;2023-01-05T04:30:48;23.45;;;12.05;;
61635;SDS011;59438;45.014;39.006;2023-01-05T04:33:15;21.20;;;12.32;;
61635;SDS011;59438;45.014;39.006;2023-01-05T04:35:41;30.83;;;15.38;;
61635;SDS011;59438;45.014;39.006;2023-01-05T04:38:08;30.30;;;15.88;;
61635;SDS011;59438;45.014;39.006;2023-01-05T04:40:35;26.92;;;14.77;;
61635;SDS011;59438;45.014;39.006;2023-01-05T04:43:02;22.67;;;11.68;;
61635;SDS011;59438;45.014;39.006;2023-01-05T04:45:28;24.73;;;11.27;;
61635;SDS011;59438;45.014;39.006;2023-01-05T04:47:55;22.80;;;10.80;;
61635;SDS011;59438;45.014;39.006;2023-01-05T04:50:21;21.55;;;11.52;;
61635;SDS011;59438;45.014;39.006;2023-01-05T04:52:48;22.17;;;12.18;;
61635;SDS011;59438;45.014;39.006;2023-01-05T04:55:14;25.85;;;12.50;;
61635;SDS011;59438;45.014;39.006;2023-01-05T05:00:27;24.73;;;10.63;;
61635;SDS011;59438;45.014;39.006;2023-01-05T05:02:54;28.98;;;9.85;;
61635;SDS011;59438;45.014;39.006;2023-01-05T05:05:20;24.23;;;9.77;;
61635;SDS011;59438;45.014;39.006;2023-01-05T05:07:46;20.13;;;9.23;;
61635;SDS011;59438;45.014;39.006;2023-01-05T05:10:31;21.60;;;8.82;;
61635;SDS011;59438;45.014;39.006;2023-01-05T05:12:57;22.40;;;8.00;;
61635;SDS011;59438;45.014;39.006;2023-01-05T05:15:25;20.90;;;8.85;;
61635;SDS011;59438;45.014;39.006;2023-01-05T05:17:51;22.95;;;9.43;;
61635;SDS011;59438;45.014;39.006;2023-01-05T05:20:18;21.92;;;10.00;;
61635;SDS011;59438;45.014;39.006;2023-01-05T05:22:44;21.67;;;9.70;;
61635;SDS011;59438;45.014;39.006;2023-01-05T05:25:10;28.52;;;11.25;;
61635;SDS011;59438;45.014;39.006;2023-01-05T05:27:37;22.25;;;9.98;;
61635;SDS011;59438;45.014;39.006;2023-01-05T05:30:03;23.02;;;10.18;;
61635;SDS011;59438;45.014;39.006;2023-01-05T05:32:32;26.90;;;11.13;;
61635;SDS011;59438;45.014;39.006;2023-01-05T05:34:58;24.05;;;10.30;;
61635;SDS011;59438;45.014;39.006;2023-01-05T05:37:25;23.02;;;10.25;;
61635;SDS011;59438;45.014;39.006;2023-01-05T05:39:51;20.58;;;10.00;;
61635;SDS011;59438;45.014;39.006;2023-01-05T05:42:17;22.25;;;10.27;;
61635;SDS011;59438;45.014;39.006;2023-01-05T05:44:44;19.85;;;9.50;;
61635;SDS011;59438;45.014;39.006;2023-01-05T05:47:10;21.33;;;9.38;;
61635;SDS011;59438;45.014;39.006;2023-01-05T05:49:38;18.95;;;9.88;;
61635;SDS011;59438;45.014;39.006;2023-01-05T05:52:04;25.98;;;10.25;;
61635;SDS011;59438;45.014;39.006;2023-01-05T05:54:31;20.42;;;9.75;;
61635;SDS011;59438;45.014;39.006;2023-01-05T05:56:57;20.40;;;10.30;;
61635;SDS011;59438;45.014;39.006;2023-01-05T05:59:23;51.83;;;19.63;;
61635;SDS011;59438;45.014;39.006;2023-01-05T06:01:50;136.32;;;38.25;;
61635;SDS011;59438;45.014;39.006;2023-01-05T06:04:16;126.45;;;37.88;;
61635;SDS011;59438;45.014;39.006;2023-01-05T06:06:44;74.13;;;24.83;;
61635;SDS011;59438;45.014;39.006;2023-01-05T06:09:10;57.95;;;20.95;;
61635;SDS011;59438;45.014;39.006;2023-01-05T06:11:37;49.55;;;18.40;;
61635;SDS011;59438;45.014;39.006;2023-01-05T06:14:03;36.85;;;14.80;;
61635;SDS011;59438;45.014;39.006;2023-01-05T06:16:29;33.55;;;13.68;;
61635;SDS011;59438;45.014;39.006;2023-01-05T06:18:56;26.90;;;13.52;;
61635;SDS011;59438;45.014;39.006;2023-01-05T06:21:22;31.95;;;15.15;;
61635;SDS011;59438;45.014;39.006;2023-01-05T06:23:50;48.65;;;20.20;;
61635;SDS011;59438;45.014;39.006;2023-01-05T06:26:16;40.35;;;18.27;;
61635;SDS011;59438;45.014;39.006;2023-01-05T06:28:42;45.83;;;21.73;;
61635;SDS011;59438;45.014;39.006;2023-01-05T06:31:09;39.50;;;22.15;;
61635;SDS011;59438;45.014;39.006;2023-01-05T06:33:35;41.03;;;17.73;;
61635;SDS011;59438;45.014;39.006;2023-01-05T06:36:01;34.28;;;14.18;;
61635;SDS011;59438;45.014;39.006;2023-01-05T06:38:28;29.30;;;12.40;;
61635;SDS011;59438;45.014;39.006;2023-01-05T06:40:56;27.52;;;12.43;;
61635;SDS011;59438;45.014;39.006;2023-01-05T06:43:22;30.83;;;17.98;;
61635;SDS011;59438;45.014;39.006;2023-01-05T06:45:48;30.85;;;18.60;;
61635;SDS011;59438;45.014;39.006;2023-01-05T06:51:00;35.08;;;20.10;;
61635;SDS011;59438;45.014;39.006;2023-01-05T06:53:26;31.95;;;18.50;;
61635;SDS011;59438;45.014;39.006;2023-01-05T06:55:52;33.28;;;17.42;;
61635;SDS011;59438;45.014;39.006;2023-01-05T06:58:20;25.05;;;14.07;;
61635;SDS011;59438;45.014;39.006;2023-01-05T07:00:46;21.95;;;12.10;;
61635;SDS011;59438;45.014;39.006;2023-01-05T07:03:31;25.60;;;11.57;;
61635;SDS011;59438;45.014;39.006;2023-01-05T07:05:57;23.75;;;13.27;;
61635;SDS011;59438;45.014;39.006;2023-01-05T07:08:23;27.77;;;13.52;;
61635;SDS011;59438;45.014;39.006;2023-01-05T07:10:50;23.40;;;12.80;;
61635;SDS011;59438;45.014;39.006;2023-01-05T07:13:16;23.40;;;11.30;;
61635;SDS011;59438;45.014;39.006;2023-01-05T07:15:44;22.60;;;11.13;;
61635;SDS011;59438;45.014;39.006;2023-01-05T07:18:10;18.77;;;10.10;;
61635;SDS011;59438;45.014;39.006;2023-01-05T07:20:36;22.65;;;9.65;;
61635;SDS011;59438;45.014;39.006;2023-01-05T07:23:03;19.35;;;9.32;;
61635;SDS011;59438;45.014;39.006;2023-01-05T07:25:29;21.00;;;8.40;;
61635;SDS011;59438;45.014;39.006;2023-01-05T07:27:56;18.17;;;8.88;;
61635;SDS011;59438;45.014;39.006;2023-01-05T07:30:22;18.83;;;8.68;;
61635;SDS011;59438;45.014;39.006;2023-01-05T07:32:50;15.63;;;7.43;;
61635;SDS011;59438;45.014;39.006;2023-01-05T07:35:16;16.35;;;7.82;;
61635;SDS011;59438;45.014;39.006;2023-01-05T07:37:43;21.40;;;8.43;;
61635;SDS011;59438;45.014;39.006;2023-01-05T07:40:09;29.33;;;7.47;;
61635;SDS011;59438;45.014;39.006;2023-01-05T07:42:36;19.75;;;7.60;;
61635;SDS011;59438;45.014;39.006;2023-01-05T07:45:03;11.15;;;6.68;;
61635;SDS011;59438;45.014;39.006;2023-01-05T07:47:30;13.43;;;6.80;;
61635;SDS011;59438;45.014;39.006;2023-01-05T07:49:58;14.25;;;7.10;;
61635;SDS011;59438;45.014;39.006;2023-01-05T07:52:24;14.02;;;6.75;;
61635;SDS011;59438;45.014;39.006;2023-01-05T07:54:53;10.82;;;6.05;;
61635;SDS011;59438;45.014;39.006;2023-01-05T07:57:19;20.25;;;7.00;;
61635;SDS011;59438;45.014;39.006;2023-01-05T07:59:46;12.52;;;6.15;;
61635;SDS011;59438;45.014;39.006;2023-01-05T08:04:58;16.75;;;6.20;;
61635;SDS011;59438;45.014;39.006;2023-01-05T08:10:09;10.45;;;5.85;;
61635;SDS011;59438;45.014;39.006;2023-01-05T08:12:37;23.42;;;6.65;;
61635;SDS011;59438;45.014;39.006;2023-01-05T08:15:03;12.52;;;5.70;;
61635;SDS011;59438;45.014;39.006;2023-01-05T08:17:30;8.82;;;5.00;;
61635;SDS011;59438;45.014;39.006;2023-01-05T08:19:58;8.23;;;4.75;;
61635;SDS011;59438;45.014;39.006;2023-01-05T08:25:14;10.38;;;3.38;;
61635;SDS011;59438;45.014;39.006;2023-01-05T08:27:40;6.30;;;3.65;;
61635;SDS011;59438;45.014;39.006;2023-01-05T08:30:07;6.70;;;3.58;;
61635;SDS011;59438;45.014;39.006;2023-01-05T08:32:34;6.70;;;3.63;;
61635;SDS011;59438;45.014;39.006;2023-01-05T08:35:02;5.43;;;3.35;;
61635;SDS011;59438;45.014;39.006;2023-01-05T08:37:29;9.23;;;3.47;;
61635;SDS011;59438;45.014;39.006;2023-01-05T08:39:55;7.38;;;4.00;;
61635;SDS011;59438;45.014;39.006;2023-01-05T08:42:22;6.00;;;3.55;;
61635;SDS011;59438;45.014;39.006;2023-01-05T08:44:48;6.40;;;3.13;;
61635;SDS011;59438;45.014;39.006;2023-01-05T08:47:15;6.35;;;3.47;;
61635;SDS011;59438;45.014;39.006;2023-01-05T08:49:41;5.32;;;3.60;;
61635;SDS011;59438;45.014;39.006;2023-01-05T08:52:09;6.43;;;3.80;;
61635;SDS011;59438;45.014;39.006;2023-01-05T08:54:35;5.50;;;3.58;;
61635;SDS011;59438;45.014;39.006;2023-01-05T08:57:01;8.45;;;3.47;;
61635;SDS011;59438;45.014;39.006;2023-01-05T08:59:28;7.72;;;3.53;;
61635;SDS011;59438;45.014;39.006;2023-01-05T09:01:54;7.25;;;3.60;;
61635;SDS011;59438;45.014;39.006;2023-01-05T09:04:20;11.25;;;3.90;;
61635;SDS011;59438;45.014;39.006;2023-01-05T09:06:47;9.77;;;4.70;;
61635;SDS011;59438;45.014;39.006;2023-01-05T09:09:14;7.03;;;3.90;;
61635;SDS011;59438;45.014;39.006;2023-01-05T09:11:41;5.22;;;3.47;;
61635;SDS011;59438;45.014;39.006;2023-01-05T09:14:10;6.97;;;3.83;;
61635;SDS011;59438;45.014;39.006;2023-01-05T09:16:37;6.65;;;4.07;;
61635;SDS011;59438;45.014;39.006;2023-01-05T09:19:03;7.25;;;3.53;;
61635;SDS011;59438;45.014;39.006;2023-01-05T09:21:47;6.85;;;3.72;;
61635;SDS011;59438;45.014;39.006;2023-01-05T09:24:15;5.15;;;3.40;;
61635;SDS011;59438;45.014;39.006;2023-01-05T09:26:42;11.30;;;4.10;;
61635;SDS011;59438;45.014;39.006;2023-01-05T09:29:08;7.40;;;3.75;;
61635;SDS011;59438;45.014;39.006;2023-01-05T09:31:36;7.65;;;3.75;;
61635;SDS011;59438;45.014;39.006;2023-01-05T09:34:03;7.68;;;3.60;;
61635;SDS011;59438;45.014;39.006;2023-01-05T09:36:29;7.43;;;3.83;;
61635;SDS011;59438;45.014;39.006;2023-01-05T09:38:55;7.50;;;3.70;;
61635;SDS011;59438;45.014;39.006;2023-01-05T09:41:24;10.98;;;4.47;;
61635;SDS011;59438;45.014;39.006;2023-01-05T09:43:54;12.90;;;4.82;;
61635;SDS011;59438;45.014;39.006;2023-01-05T09:46:23;10.57;;;4.30;;
61635;SDS011;59438;45.014;39.006;2023-01-05T09:48:58;12.02;;;3.70;;
61635;SDS011;59438;45.014;39.006;2023-01-05T09:51:27;9.10;;;4.13;;
61635;SDS011;59438;45.014;39.006;2023-01-05T09:53:54;5.57;;;3.72;;
61635;SDS011;59438;45.014;39.006;2023-01-05T09:56:25;6.15;;;3.92;;
61635;SDS011;59438;45.014;39.006;2023-01-05T09:58:54;10.00;;;3.72;;
61635;SDS011;59438;45.014;39.006;2023-01-05T10:01:32;10.52;;;4.15;;
61635;SDS011;59438;45.014;39.006;2023-01-05T10:04:02;8.45;;;3.78;;
61635;SDS011;59438;45.014;39.006;2023-01-05T10:06:31;6.55;;;3.63;;
61635;SDS011;59438;45.014;39.006;2023-01-05T10:09:01;6.55;;;3.47;;
61635;SDS011;59438;45.014;39.006;2023-01-05T10:11:50;5.70;;;3.88;;
61635;SDS011;59438;45.014;39.006;2023-01-05T10:14:22;8.27;;;3.78;;
61635;SDS011;59438;45.014;39.006;2023-01-05T10:16:53;7.70;;;3.97;;
61635;SDS011;59438;45.014;39.006;2023-01-05T10:19:19;7.78;;;4.30;;
61635;SDS011;59438;45.014;39.006;2023-01-05T10:21:48;6.53;;;3.80;;
61635;SDS011;59438;45.014;39.006;2023-01-05T10:24:26;8.68;;;3.88;;
61635;SDS011;59438;45.014;39.006;2023-01-05T10:27:03;9.10;;;4.15;;
61635;SDS011;59438;45.014;39.006;2023-01-05T10:29:52;10.88;;;4.47;;
61635;SDS011;59438;45.014;39.006;2023-01-05T10:32:24;9.80;;;3.88;;
61635;SDS011;59438;45.014;39.006;2023-01-05T10:35:12;7.32;;;3.75;;
61635;SDS011;59438;45.014;39.006;2023-01-05T10:37:57;7.07;;;4.00;;
61635;SDS011;59438;45.014;39.006;2023-01-05T10:40:33;7.22;;;4.07;;
61635;SDS011;59438;45.014;39.006;2023-01-05T10:43:17;8.43;;;4.07;;
61635;SDS011;59438;45.014;39.006;2023-01-05T10:45:52;5.63;;;3.15;;
61635;SDS011;59438;45.014;39.006;2023-01-05T10:48:25;7.07;;;3.85;;
61635;SDS011;59438;45.014;39.006;2023-01-05T10:50:53;8.68;;;4.13;;
61635;SDS011;59438;45.014;39.006;2023-01-05T10:53:22;7.55;;;3.40;;
61635;SDS011;59438;45.014;39.006;2023-01-05T10:55:53;8.05;;;3.67;;
61635;SDS011;59438;45.014;39.006;2023-01-05T10:58:28;8.13;;;3.90;;
61635;SDS011;59438;45.014;39.006;2023-01-05T11:00:55;6.55;;;3.30;;
61635;SDS011;59438;45.014;39.006;2023-01-05T11:03:26;6.20;;;3.35;;
61635;SDS011;59438;45.014;39.006;2023-01-05T11:05:58;7.35;;;3.83;;
61635;SDS011;59438;45.014;39.006;2023-01-05T11:08:25;10.73;;;4.47;;
61635;SDS011;59438;45.014;39.006;2023-01-05T11:10:54;12.20;;;6.57;;
61635;SDS011;59438;45.014;39.006;2023-01-05T11:13:41;9.15;;;4.13;;
61635;SDS011;59438;45.014;39.006;2023-01-05T11:16:12;5.82;;;3.50;;
61635;SDS011;59438;45.014;39.006;2023-01-05T11:21:27;6.93;;;3.78;;
61635;SDS011;59438;45.014;39.006;2023-01-05T11:24:08;7.45;;;3.58;;
61635;SDS011;59438;45.014;39.006;2023-01-05T11:26:52;7.75;;;3.30;;
61635;SDS011;59438;45.014;39.006;2023-01-05T11:29:21;9.88;;;4.03;;
61635;SDS011;59438;45.014;39.006;2023-01-05T11:31:49;9.88;;;3.67;;
61635;SDS011;59438;45.014;39.006;2023-01-05T11:34:24;8.10;;;3.85;;
61635;SDS011;59438;45.014;39.006;2023-01-05T11:37:01;9.60;;;3.67;;
61635;SDS011;59438;45.014;39.006;2023-01-05T11:39:29;18.67;;;3.35;;
61635;SDS011;59438;45.014;39.006;2023-01-05T11:42:08;7.53;;;3.35;;
61635;SDS011;59438;45.014;39.006;2023-01-05T11:44:40;5.03;;;3.22;;
61635;SDS011;59438;45.014;39.006;2023-01-05T11:47:08;11.77;;;3.63;;
61635;SDS011;59438;45.014;39.006;2023-01-05T11:52:33;9.05;;;4.22;;
61635;SDS011;59438;45.014;39.006;2023-01-05T11:57:53;8.48;;;3.92;;
61635;SDS011;59438;45.014;39.006;2023-01-05T12:00:25;6.40;;;3.25;;
61635;SDS011;59438;45.014;39.006;2023-01-05T12:03:10;4.65;;;3.20;;
61635;SDS011;59438;45.014;39.006;2023-01-05T12:06:03;7.97;;;3.50;;
61635;SDS011;59438;45.014;39.006;2023-01-05T12:11:30;10.13;;;4.57;;
61635;SDS011;59438;45.014;39.006;2023-01-05T12:14:08;8.57;;;4.82;;
61635;SDS011;59438;45.014;39.006;2023-01-05T12:16:47;13.13;;;7.53;;
61635;SDS011;59438;45.014;39.006;2023-01-05T12:19:21;10.77;;;5.63;;
61635;SDS011;59438;45.014;39.006;2023-01-05T12:22:01;12.43;;;5.22;;
61635;SDS011;59438;45.014;39.006;2023-01-05T12:24:54;5.03;;;3.20;;
61635;SDS011;59438;45.014;39.006;2023-01-05T12:27:31;7.55;;;3.55;;
61635;SDS011;59438;45.014;39.006;2023-01-05T12:30:13;7.13;;;3.03;;
61635;SDS011;59438;45.014;39.006;2023-01-05T12:32:55;6.05;;;3.30;;
61635;SDS011;59438;45.014;39.006;2023-01-05T12:35:36;7.15;;;3.35;;
61635;SDS011;59438;45.014;39.006;2023-01-05T12:38:22;7.25;;;3.92;;
61635;SDS011;59438;45.014;39.006;2023-01-05T12:41:08;10.52;;;4.10;;
61635;SDS011;59438;45.014;39.006;2023-01-05T12:44:07;13.48;;;5.57;;
61635;SDS011;59438;45.014;39.006;2023-01-05T12:46:56;6.95;;;3.80;;
61635;SDS011;59438;45.014;39.006;2023-01-05T12:49:36;9.00;;;5.13;;
61635;SDS011;59438;45.014;39.006;2023-01-05T12:52:08;9.35;;;4.35;;
61635;SDS011;59438;45.014;39.006;2023-01-05T12:54:40;7.80;;;3.67;;
61635;SDS011;59438;45.014;39.006;2023-01-05T12:57:12;5.55;;;3.53;;
61635;SDS011;59438;45.014;39.006;2023-01-05T12:59:43;7.72;;;3.42;;
61635;SDS011;59438;45.014;39.006;2023-01-05T13:02:19;4.63;;;3.15;;
61635;SDS011;59438;45.014;39.006;2023-01-05T13:04:56;9.50;;;3.83;;
61635;SDS011;59438;45.014;39.006;2023-01-05T13:07:28;10.43;;;3.70;;
61635;SDS011;59438;45.014;39.006;2023-01-05T13:12:42;8.02;;;3.50;;
61635;SDS011;59438;45.014;39.006;2023-01-05T13:15:15;5.32;;;3.45;;
61635;SDS011;59438;45.014;39.006;2023-01-05T13:17:46;8.40;;;3.80;;
61635;SDS011;59438;45.014;39.006;2023-01-05T13:20:20;8.18;;;4.15;;
61635;SDS011;59438;45.014;39.006;2023-01-05T13:22:54;8.25;;;3.60;;
61635;SDS011;59438;45.014;39.006;2023-01-05T13:25:26;6.90;;;3.63;;
61635;SDS011;59438;45.014;39.006;2023-01-05T13:27:55;8.77;;;3.93;;
61635;SDS011;59438;45.014;39.006;2023-01-05T13:30:22;10.48;;;5.15;;
61635;SDS011;59438;45.014;39.006;2023-01-05T13:32:55;8.40;;;4.43;;
61635;SDS011;59438;45.014;39.006;2023-01-05T13:41:20;11.48;;;4.72;;
61635;SDS011;59438;45.014;39.006;2023-01-05T13:44:03;13.32;;;4.50;;
61635;SDS011;59438;45.014;39.006;2023-01-05T13:46:57;6.07;;;3.70;;
61635;SDS011;59438;45.014;39.006;2023-01-05T13:55:29;11.18;;;5.43;;
61635;SDS011;59438;45.014;39.006;2023-01-05T13:57:59;15.07;;;8.30;;
61635;SDS011;59438;45.014;39.006;2023-01-05T14:00:26;13.75;;;7.78;;
61635;SDS011;59438;45.014;39.006;2023-01-05T14:02:59;11.25;;;5.95;;
61635;SDS011;59438;45.014;39.006;2023-01-05T14:05:29;11.40;;;5.32;;
61635;SDS011;59438;45.014;39.006;2023-01-05T14:07:58;10.40;;;4.65;;
61635;SDS011;59438;45.014;39.006;2023-01-05T14:10:29;6.13;;;3.95;;
61635;SDS011;59438;45.014;39.006;2023-01-05T14:12:57;6.25;;;4.28;;
61635;SDS011;59438;45.014;39.006;2023-01-05T14:18:09;7.20;;;4.32;;
61635;SDS011;59438;45.014;39.006;2023-01-05T14:20:37;6.10;;;3.97;;
61635;SDS011;59438;45.014;39.006;2023-01-05T14:26:10;6.75;;;4.00;;
61635;SDS011;59438;45.014;39.006;2023-01-05T14:31:32;6.03;;;3.88;;
61635;SDS011;59438;45.014;39.006;2023-01-05T14:34:02;8.55;;;3.90;;
61635;SDS011;59438;45.014;39.006;2023-01-05T14:36:32;11.27;;;5.50;;
61635;SDS011;59438;45.014;39.006;2023-01-05T14:39:01;7.20;;;5.07;;
61635;SDS011;59438;45.014;39.006;2023-01-05T14:41:32;6.68;;;4.40;;
61635;SDS011;59438;45.014;39.006;2023-01-05T14:44:00;12.27;;;4.88;;
61635;SDS011;59438;45.014;39.006;2023-01-05T14:49:18;10.40;;;5.40;;
61635;SDS011;59438;45.014;39.006;2023-01-05T14:51:52;33.45;;;9.82;;
61635;SDS011;59438;45.014;39.006;2023-01-05T14:54:33;183.98;;;64.75;;
61635;SDS011;59438;45.014;39.006;2023-01-05T15:00:04;16.52;;;9.27;;
61635;SDS011;59438;45.014;39.006;2023-01-05T15:02:40;11.30;;;7.03;;
61635;SDS011;59438;45.014;39.006;2023-01-05T15:05:12;8.15;;;5.38;;
61635;SDS011;59438;45.014;39.006;2023-01-05T15:07:42;8.48;;;5.25;;
61635;SDS011;59438;45.014;39.006;2023-01-05T15:10:22;9.35;;;4.63;;
61635;SDS011;59438;45.014;39.006;2023-01-05T15:13:41;7.05;;;4.15;;
61635;SDS011;59438;45.014;39.006;2023-01-05T15:16:25;8.95;;;4.10;;
61635;SDS011;59438;45.014;39.006;2023-01-05T15:19:09;9.10;;;4.53;;
61635;SDS011;59438;45.014;39.006;2023-01-05T15:21:52;9.45;;;4.22;;
61635;SDS011;59438;45.014;39.006;2023-01-05T15:30:27;7.72;;;4.55;;
61635;SDS011;59438;45.014;39.006;2023-01-05T15:33:11;9.05;;;4.70;;
61635;SDS011;59438;45.014;39.006;2023-01-05T15:35:43;8.68;;;4.60;;
61635;SDS011;59438;45.014;39.006;2023-01-05T15:38:19;7.68;;;4.28;;
61635;SDS011;59438;45.014;39.006;2023-01-05T15:40:46;6.53;;;3.88;;
61635;SDS011;59438;45.014;39.006;2023-01-05T15:43:18;6.20;;;3.53;;
61635;SDS011;59438;45.014;39.006;2023-01-05T15:45:48;6.13;;;3.63;;
61635;SDS011;59438;45.014;39.006;2023-01-05T15:48:18;9.38;;;3.70;;
61635;SDS011;59438;45.014;39.006;2023-01-05T15:50:51;6.28;;;3.45;;
61635;SDS011;59438;45.014;39.006;2023-01-05T15:53:21;5.65;;;3.40;;
61635;SDS011;59438;45.014;39.006;2023-01-05T15:55:50;5.47;;;3.67;;
61635;SDS011;59438;45.014;39.006;2023-01-05T15:58:16;6.07;;;3.55;;
61635;SDS011;59438;45.014;39.006;2023-01-05T16:00:46;5.63;;;3.58;;
61635;SDS011;59438;45.014;39.006;2023-01-05T16:03:26;11.70;;;4.88;;
61635;SDS011;59438;45.014;39.006;2023-01-05T16:05:55;8.55;;;4.00;;